sensor_id;sensor_type;location;lat;lon;timestamp;P1;durP1;ratioP1;P2;durP2;ratioP2
25988;SDS011;13778;48.236;9.894;2023-02-24T00:01:10;14.27;;;10.93;;
25988;SDS011;13778;48.236;9.894;2023-02-24T00:04:04;21.35;;;10.30;;
25988;SDS011;13778;48.236;9.894;2023-02-24T00:06:56;19.80;;;12.88;;
25988;SDS011;13778;48.236;9.894;2023-02-24T00:09:47;17.98;;;11.00;;
25988;SDS011;13778;48.236;9.894;2023-02-24T00:12:38;19.40;;;10.18;;
25988;SDS011;13778;48.236;9.894;2023-02-24T00:15:28;21.33;;;11.40;;
25988;SDS011;13778;48.236;9.894;2023-02-24T00:18:19;15.55;;;11.10;;
25988;SDS011;13778;48.236;9.894;2023-02-24T00:21:11;17.98;;;10.73;;
25988;SDS011;13778;48.236;9.894;2023-02-24T00:24:03;14.68;;;10.35;;
25988;SDS011;13778;48.236;9.894;2023-02-24T00:26:54;15.73;;;10.60;;
25988;SDS011;13778;48.236;9.894;2023-02-24T00:29:44;17.07;;;9.87;;
25988;SDS011;13778;48.236;9.894;2023-02-24T00:32:36;14.85;;;9.65;;
25988;SDS011;13778;48.236;9.894;2023-02-24T00:35:26;16.63;;;10.18;;
25988;SDS011;13778;48.236;9.894;2023-02-24T00:38:18;19.37;;;9.70;;
25988;SDS011;13778;48.236;9.894;2023-02-24T00:41:10;19.95;;;10.50;;
25988;SDS011;13778;48.236;9.894;2023-02-24T00:44:01;14.90;;;11.40;;
25988;SDS011;13778;48.236;9.894;2023-02-24T00:46:54;51.92;;;16.80;;
25988;SDS011;13778;48.236;9.894;2023-02-24T00:49:44;43.20;;;14.63;;
25988;SDS011;13778;48.236;9.894;2023-02-24T00:52:36;32.30;;;14.23;;
25988;SDS011;13778;48.236;9.894;2023-02-24T00:55:28;35.92;;;14.50;;
25988;SDS011;13778;48.236;9.894;2023-02-24T00:58:24;35.25;;;14.25;;
25988;SDS011;13778;48.236;9.894;2023-02-24T01:01:20;41.70;;;14.32;;
25988;SDS011;13778;48.236;9.894;2023-02-24T01:04:12;34.25;;;13.40;;
25988;SDS011;13778;48.236;9.894;2023-02-24T01:07:02;29.60;;;12.73;;
25988;SDS011;13778;48.236;9.894;2023-02-24T01:09:58;25.42;;;12.82;;
25988;SDS011;13778;48.236;9.894;2023-02-24T01:12:50;25.90;;;12.23;;
25988;SDS011;13778;48.236;9.894;2023-02-24T01:15:42;19.48;;;11.40;;
25988;SDS011;13778;48.236;9.894;2023-02-24T01:18:32;19.10;;;11.13;;
25988;SDS011;13778;48.236;9.894;2023-02-24T01:21:23;15.27;;;10.55;;
25988;SDS011;13778;48.236;9.894;2023-02-24T01:24:13;15.00;;;10.05;;
25988;SDS011;13778;48.236;9.894;2023-02-24T01:27:04;11.30;;;8.60;;
25988;SDS011;13778;48.236;9.894;2023-02-24T01:29:56;10.97;;;7.20;;
25988;SDS011;13778;48.236;9.894;2023-02-24T01:32:49;11.32;;;7.32;;
25988;SDS011;13778;48.236;9.894;2023-02-24T01:35:39;12.45;;;8.25;;
25988;SDS011;13778;48.236;9.894;2023-02-24T01:38:30;14.57;;;9.70;;
25988;SDS011;13778;48.236;9.894;2023-02-24T01:41:22;13.70;;;9.43;;
25988;SDS011;13778;48.236;9.894;2023-02-24T01:47:26;10.38;;;7.70;;
25988;SDS011;13778;48.236;9.894;2023-02-24T01:50:19;13.57;;;9.07;;
25988;SDS011;13778;48.236;9.894;2023-02-24T01:53:11;12.43;;;8.52;;
25988;SDS011;13778;48.236;9.894;2023-02-24T01:56:02;15.23;;;8.63;;
25988;SDS011;13778;48.236;9.894;2023-02-24T01:58:54;15.00;;;8.52;;
25988;SDS011;13778;48.236;9.894;2023-02-24T02:01:45;14.20;;;10.15;;
25988;SDS011;13778;48.236;9.894;2023-02-24T02:04:38;10.25;;;7.82;;
25988;SDS011;13778;48.236;9.894;2023-02-24T02:07:30;10.95;;;8.07;;
25988;SDS011;13778;48.236;9.894;2023-02-24T02:10:21;12.65;;;8.57;;
25988;SDS011;13778;48.236;9.894;2023-02-24T02:13:14;14.98;;;9.63;;
25988;SDS011;13778;48.236;9.894;2023-02-24T02:16:13;14.35;;;8.23;;
25988;SDS011;13778;48.236;9.894;2023-02-24T02:19:13;11.98;;;8.40;;
25988;SDS011;13778;48.236;9.894;2023-02-24T02:22:32;17.83;;;10.07;;
25988;SDS011;13778;48.236;9.894;2023-02-24T02:25:30;13.35;;;9.40;;
25988;SDS011;13778;48.236;9.894;2023-02-24T02:28:29;12.75;;;8.52;;
25988;SDS011;13778;48.236;9.894;2023-02-24T02:31:33;14.63;;;9.88;;
25988;SDS011;13778;48.236;9.894;2023-02-24T02:34:28;16.48;;;10.98;;
25988;SDS011;13778;48.236;9.894;2023-02-24T02:37:23;16.05;;;10.57;;
25988;SDS011;13778;48.236;9.894;2023-02-24T02:40:17;16.45;;;11.85;;
25988;SDS011;13778;48.236;9.894;2023-02-24T02:43:13;19.05;;;11.73;;
25988;SDS011;13778;48.236;9.894;2023-02-24T02:46:05;21.00;;;11.38;;
25988;SDS011;13778;48.236;9.894;2023-02-24T02:48:58;18.45;;;12.38;;
25988;SDS011;13778;48.236;9.894;2023-02-24T02:51:53;21.00;;;12.02;;
25988;SDS011;13778;48.236;9.894;2023-02-24T02:54:45;16.55;;;11.32;;
25988;SDS011;13778;48.236;9.894;2023-02-24T02:57:38;21.08;;;11.52;;
25988;SDS011;13778;48.236;9.894;2023-02-24T03:00:31;16.58;;;10.90;;
25988;SDS011;13778;48.236;9.894;2023-02-24T03:03:23;17.13;;;10.38;;
25988;SDS011;13778;48.236;9.894;2023-02-24T03:06:14;13.10;;;10.20;;
25988;SDS011;13778;48.236;9.894;2023-02-24T03:09:08;13.98;;;10.68;;
25988;SDS011;13778;48.236;9.894;2023-02-24T03:12:04;15.23;;;10.52;;
25988;SDS011;13778;48.236;9.894;2023-02-24T03:14:57;16.83;;;10.43;;
25988;SDS011;13778;48.236;9.894;2023-02-24T03:17:49;15.45;;;9.80;;
25988;SDS011;13778;48.236;9.894;2023-02-24T03:20:44;16.00;;;9.57;;
25988;SDS011;13778;48.236;9.894;2023-02-24T03:23:39;13.13;;;9.90;;
25988;SDS011;13778;48.236;9.894;2023-02-24T03:26:37;12.35;;;8.82;;
25988;SDS011;13778;48.236;9.894;2023-02-24T03:29:32;13.25;;;9.30;;
25988;SDS011;13778;48.236;9.894;2023-02-24T03:32:25;15.90;;;9.20;;
25988;SDS011;13778;48.236;9.894;2023-02-24T03:35:21;14.93;;;9.68;;
25988;SDS011;13778;48.236;9.894;2023-02-24T03:38:13;19.55;;;10.30;;
25988;SDS011;13778;48.236;9.894;2023-02-24T03:41:04;16.70;;;9.27;;
25988;SDS011;13778;48.236;9.894;2023-02-24T03:44:00;12.85;;;9.10;;
25988;SDS011;13778;48.236;9.894;2023-02-24T03:46:52;11.73;;;8.65;;
25988;SDS011;13778;48.236;9.894;2023-02-24T03:52:36;15.68;;;9.20;;
25988;SDS011;13778;48.236;9.894;2023-02-24T03:55:30;18.55;;;13.02;;
25988;SDS011;13778;48.236;9.894;2023-02-24T03:58:25;14.25;;;10.63;;
25988;SDS011;13778;48.236;9.894;2023-02-24T04:01:21;15.38;;;9.98;;
25988;SDS011;13778;48.236;9.894;2023-02-24T04:04:14;12.95;;;9.98;;
25988;SDS011;13778;48.236;9.894;2023-02-24T04:07:09;13.20;;;9.93;;
25988;SDS011;13778;48.236;9.894;2023-02-24T04:10:02;13.15;;;9.02;;
25988;SDS011;13778;48.236;9.894;2023-02-24T04:12:58;14.30;;;9.90;;
25988;SDS011;13778;48.236;9.894;2023-02-24T04:15:52;12.10;;;9.68;;
25988;SDS011;13778;48.236;9.894;2023-02-24T04:18:48;12.07;;;8.13;;
25988;SDS011;13778;48.236;9.894;2023-02-24T04:21:40;12.55;;;9.00;;
25988;SDS011;13778;48.236;9.894;2023-02-24T04:27:22;17.77;;;10.27;;
25988;SDS011;13778;48.236;9.894;2023-02-24T04:30:13;15.63;;;9.30;;
25988;SDS011;13778;48.236;9.894;2023-02-24T04:33:03;10.98;;;8.77;;
25988;SDS011;13778;48.236;9.894;2023-02-24T04:35:55;15.38;;;10.00;;
25988;SDS011;13778;48.236;9.894;2023-02-24T04:38:45;12.73;;;9.82;;
25988;SDS011;13778;48.236;9.894;2023-02-24T04:41:36;11.70;;;7.95;;
25988;SDS011;13778;48.236;9.894;2023-02-24T04:44:26;12.05;;;8.23;;
25988;SDS011;13778;48.236;9.894;2023-02-24T04:47:17;15.27;;;8.45;;
25988;SDS011;13778;48.236;9.894;2023-02-24T04:50:08;14.02;;;8.65;;
25988;SDS011;13778;48.236;9.894;2023-02-24T04:55:51;14.48;;;8.75;;
25988;SDS011;13778;48.236;9.894;2023-02-24T05:01:34;17.48;;;9.20;;
25988;SDS011;13778;48.236;9.894;2023-02-24T05:04:24;17.35;;;9.18;;
25988;SDS011;13778;48.236;9.894;2023-02-24T05:07:14;16.20;;;9.32;;
25988;SDS011;13778;48.236;9.894;2023-02-24T05:10:05;20.55;;;10.18;;
25988;SDS011;13778;48.236;9.894;2023-02-24T05:12:57;16.20;;;9.37;;
25988;SDS011;13778;48.236;9.894;2023-02-24T05:15:48;37.05;;;10.73;;
25988;SDS011;13778;48.236;9.894;2023-02-24T05:18:38;41.90;;;11.98;;
25988;SDS011;13778;48.236;9.894;2023-02-24T05:21:29;35.97;;;11.63;;
25988;SDS011;13778;48.236;9.894;2023-02-24T05:24:24;20.50;;;11.35;;
25988;SDS011;13778;48.236;9.894;2023-02-24T05:27:15;36.22;;;11.05;;
25988;SDS011;13778;48.236;9.894;2023-02-24T05:30:08;34.40;;;10.80;;
25988;SDS011;13778;48.236;9.894;2023-02-24T05:32:59;17.92;;;10.52;;
25988;SDS011;13778;48.236;9.894;2023-02-24T05:35:50;18.58;;;10.43;;
25988;SDS011;13778;48.236;9.894;2023-02-24T05:38:40;18.55;;;9.38;;
25988;SDS011;13778;48.236;9.894;2023-02-24T05:41:32;45.70;;;9.25;;
25988;SDS011;13778;48.236;9.894;2023-02-24T05:44:24;12.07;;;7.95;;
25988;SDS011;13778;48.236;9.894;2023-02-24T05:47:16;16.95;;;8.32;;
25988;SDS011;13778;48.236;9.894;2023-02-24T05:50:08;29.27;;;9.48;;
25988;SDS011;13778;48.236;9.894;2023-02-24T05:53:00;53.22;;;11.50;;
25988;SDS011;13778;48.236;9.894;2023-02-24T05:55:51;81.00;;;12.10;;
25988;SDS011;13778;48.236;9.894;2023-02-24T05:58:42;47.80;;;11.65;;
25988;SDS011;13778;48.236;9.894;2023-02-24T06:01:36;73.38;;;12.50;;
25988;SDS011;13778;48.236;9.894;2023-02-24T06:04:30;19.40;;;9.00;;
25988;SDS011;13778;48.236;9.894;2023-02-24T06:07:29;14.18;;;8.02;;
25988;SDS011;13778;48.236;9.894;2023-02-24T06:10:22;76.45;;;11.80;;
25988;SDS011;13778;48.236;9.894;2023-02-24T06:13:13;19.65;;;9.57;;
25988;SDS011;13778;48.236;9.894;2023-02-24T06:16:04;19.90;;;9.63;;
25988;SDS011;13778;48.236;9.894;2023-02-24T06:18:55;38.42;;;10.73;;
25988;SDS011;13778;48.236;9.894;2023-02-24T06:21:47;45.15;;;9.70;;
25988;SDS011;13778;48.236;9.894;2023-02-24T06:24:40;27.05;;;9.10;;
25988;SDS011;13778;48.236;9.894;2023-02-24T06:27:32;28.33;;;9.02;;
25988;SDS011;13778;48.236;9.894;2023-02-24T06:30:24;44.10;;;10.20;;
25988;SDS011;13778;48.236;9.894;2023-02-24T06:33:15;80.10;;;10.45;;
25988;SDS011;13778;48.236;9.894;2023-02-24T06:36:06;33.85;;;8.75;;
25988;SDS011;13778;48.236;9.894;2023-02-24T06:38:57;47.85;;;9.90;;
25988;SDS011;13778;48.236;9.894;2023-02-24T06:44:39;46.78;;;9.13;;
25988;SDS011;13778;48.236;9.894;2023-02-24T06:47:30;73.22;;;11.07;;
25988;SDS011;13778;48.236;9.894;2023-02-24T06:50:21;88.22;;;12.20;;
25988;SDS011;13778;48.236;9.894;2023-02-24T06:53:11;51.93;;;11.30;;
25988;SDS011;13778;48.236;9.894;2023-02-24T06:56:07;46.00;;;9.82;;
25988;SDS011;13778;48.236;9.894;2023-02-24T06:59:03;52.08;;;10.88;;
25988;SDS011;13778;48.236;9.894;2023-02-24T07:04:45;77.53;;;11.68;;
25988;SDS011;13778;48.236;9.894;2023-02-24T07:07:35;49.75;;;11.70;;
25988;SDS011;13778;48.236;9.894;2023-02-24T07:10:26;56.22;;;12.75;;
25988;SDS011;13778;48.236;9.894;2023-02-24T07:13:19;67.10;;;12.40;;
25988;SDS011;13778;48.236;9.894;2023-02-24T07:19:01;122.57;;;14.70;;
25988;SDS011;13778;48.236;9.894;2023-02-24T07:21:54;148.88;;;15.27;;
25988;SDS011;13778;48.236;9.894;2023-02-24T07:24:48;157.07;;;16.73;;
25988;SDS011;13778;48.236;9.894;2023-02-24T07:27:38;76.60;;;13.50;;
25988;SDS011;13778;48.236;9.894;2023-02-24T07:30:30;132.55;;;17.63;;
25988;SDS011;13778;48.236;9.894;2023-02-24T07:33:21;119.28;;;17.80;;
25988;SDS011;13778;48.236;9.894;2023-02-24T07:36:12;91.70;;;16.73;;
25988;SDS011;13778;48.236;9.894;2023-02-24T07:39:04;77.97;;;15.57;;
25988;SDS011;13778;48.236;9.894;2023-02-24T07:41:56;113.20;;;16.35;;
25988;SDS011;13778;48.236;9.894;2023-02-24T07:44:47;87.85;;;18.58;;
25988;SDS011;13778;48.236;9.894;2023-02-24T07:47:40;78.72;;;16.95;;
25988;SDS011;13778;48.236;9.894;2023-02-24T07:50:30;196.77;;;21.98;;
25988;SDS011;13778;48.236;9.894;2023-02-24T07:53:21;64.88;;;17.33;;
25988;SDS011;13778;48.236;9.894;2023-02-24T07:56:12;114.93;;;25.80;;
25988;SDS011;13778;48.236;9.894;2023-02-24T07:59:05;93.60;;;17.48;;
25988;SDS011;13778;48.236;9.894;2023-02-24T08:01:59;37.05;;;15.60;;
25988;SDS011;13778;48.236;9.894;2023-02-24T08:04:53;60.08;;;15.90;;
25988;SDS011;13778;48.236;9.894;2023-02-24T08:07:44;82.47;;;16.35;;
25988;SDS011;13778;48.236;9.894;2023-02-24T08:10:39;44.95;;;15.43;;
25988;SDS011;13778;48.236;9.894;2023-02-24T08:13:29;58.63;;;15.95;;
25988;SDS011;13778;48.236;9.894;2023-02-24T08:16:25;51.08;;;14.57;;
25988;SDS011;13778;48.236;9.894;2023-02-24T08:19:27;48.65;;;15.55;;
25988;SDS011;13778;48.236;9.894;2023-02-24T08:22:22;34.35;;;15.38;;
25988;SDS011;13778;48.236;9.894;2023-02-24T08:25:13;27.58;;;13.93;;
25988;SDS011;13778;48.236;9.894;2023-02-24T08:28:06;23.85;;;13.52;;
25988;SDS011;13778;48.236;9.894;2023-02-24T08:30:59;21.65;;;14.32;;
25988;SDS011;13778;48.236;9.894;2023-02-24T08:33:52;22.42;;;13.75;;
25988;SDS011;13778;48.236;9.894;2023-02-24T08:36:44;20.83;;;13.40;;
25988;SDS011;13778;48.236;9.894;2023-02-24T08:39:45;19.15;;;13.40;;
25988;SDS011;13778;48.236;9.894;2023-02-24T08:42:35;17.42;;;12.18;;
25988;SDS011;13778;48.236;9.894;2023-02-24T08:45:26;20.52;;;11.82;;
25988;SDS011;13778;48.236;9.894;2023-02-24T08:48:22;18.33;;;10.70;;
25988;SDS011;13778;48.236;9.894;2023-02-24T08:51:21;20.67;;;13.32;;
25988;SDS011;13778;48.236;9.894;2023-02-24T08:54:12;18.60;;;12.27;;
25988;SDS011;13778;48.236;9.894;2023-02-24T08:57:05;21.95;;;12.43;;
25988;SDS011;13778;48.236;9.894;2023-02-24T08:59:56;20.73;;;11.52;;
25988;SDS011;13778;48.236;9.894;2023-02-24T09:02:47;20.98;;;13.57;;
25988;SDS011;13778;48.236;9.894;2023-02-24T09:05:38;18.92;;;12.48;;
25988;SDS011;13778;48.236;9.894;2023-02-24T09:08:29;30.25;;;14.88;;
25988;SDS011;13778;48.236;9.894;2023-02-24T09:11:21;26.10;;;14.23;;
25988;SDS011;13778;48.236;9.894;2023-02-24T09:14:15;21.83;;;13.43;;
25988;SDS011;13778;48.236;9.894;2023-02-24T09:17:06;26.30;;;15.10;;
25988;SDS011;13778;48.236;9.894;2023-02-24T09:19:59;21.55;;;12.77;;
25988;SDS011;13778;48.236;9.894;2023-02-24T09:23:07;19.98;;;14.30;;
25988;SDS011;13778;48.236;9.894;2023-02-24T09:26:07;22.13;;;15.85;;
25988;SDS011;13778;48.236;9.894;2023-02-24T09:28:58;20.90;;;14.20;;
25988;SDS011;13778;48.236;9.894;2023-02-24T09:32:00;21.75;;;13.65;;
25988;SDS011;13778;48.236;9.894;2023-02-24T09:34:53;20.50;;;14.05;;
25988;SDS011;13778;48.236;9.894;2023-02-24T09:37:44;19.23;;;13.70;;
25988;SDS011;13778;48.236;9.894;2023-02-24T09:40:34;26.95;;;14.35;;
25988;SDS011;13778;48.236;9.894;2023-02-24T09:43:28;22.02;;;14.80;;
25988;SDS011;13778;48.236;9.894;2023-02-24T09:46:18;28.33;;;14.80;;
25988;SDS011;13778;48.236;9.894;2023-02-24T09:49:12;20.60;;;13.77;;
25988;SDS011;13778;48.236;9.894;2023-02-24T09:52:08;21.70;;;14.65;;
25988;SDS011;13778;48.236;9.894;2023-02-24T09:55:05;22.30;;;14.93;;
25988;SDS011;13778;48.236;9.894;2023-02-24T09:58:13;19.52;;;13.40;;
25988;SDS011;13778;48.236;9.894;2023-02-24T10:01:22;22.15;;;13.63;;
25988;SDS011;13778;48.236;9.894;2023-02-24T10:07:39;23.42;;;15.45;;
25988;SDS011;13778;48.236;9.894;2023-02-24T10:10:29;21.85;;;14.90;;
25988;SDS011;13778;48.236;9.894;2023-02-24T10:13:23;18.48;;;13.23;;
25988;SDS011;13778;48.236;9.894;2023-02-24T10:16:21;20.58;;;14.05;;
25988;SDS011;13778;48.236;9.894;2023-02-24T10:19:17;22.27;;;14.35;;
25988;SDS011;13778;48.236;9.894;2023-02-24T10:22:14;20.15;;;13.23;;
25988;SDS011;13778;48.236;9.894;2023-02-24T10:25:24;19.95;;;13.70;;
25988;SDS011;13778;48.236;9.894;2023-02-24T10:28:18;19.98;;;14.15;;
25988;SDS011;13778;48.236;9.894;2023-02-24T10:31:12;21.67;;;13.00;;
25988;SDS011;13778;48.236;9.894;2023-02-24T10:34:14;20.10;;;13.43;;
25988;SDS011;13778;48.236;9.894;2023-02-24T10:37:10;17.92;;;12.90;;
25988;SDS011;13778;48.236;9.894;2023-02-24T10:40:02;19.90;;;12.75;;
25988;SDS011;13778;48.236;9.894;2023-02-24T10:43:05;19.33;;;13.10;;
25988;SDS011;13778;48.236;9.894;2023-02-24T10:45:59;19.35;;;13.00;;
25988;SDS011;13778;48.236;9.894;2023-02-24T10:48:55;82.55;;;30.05;;
25988;SDS011;13778;48.236;9.894;2023-02-24T10:51:50;23.48;;;14.95;;
25988;SDS011;13778;48.236;9.894;2023-02-24T10:54:41;23.83;;;13.35;;
25988;SDS011;13778;48.236;9.894;2023-02-24T10:57:53;25.90;;;15.15;;
25988;SDS011;13778;48.236;9.894;2023-02-24T11:00:56;21.83;;;14.25;;
25988;SDS011;13778;48.236;9.894;2023-02-24T11:04:01;20.73;;;13.15;;
25988;SDS011;13778;48.236;9.894;2023-02-24T11:07:11;17.27;;;12.10;;
25988;SDS011;13778;48.236;9.894;2023-02-24T11:10:13;19.33;;;14.13;;
25988;SDS011;13778;48.236;9.894;2023-02-24T11:13:14;22.90;;;14.25;;
25988;SDS011;13778;48.236;9.894;2023-02-24T11:16:24;20.85;;;13.95;;
25988;SDS011;13778;48.236;9.894;2023-02-24T11:19:37;22.92;;;13.57;;
25988;SDS011;13778;48.236;9.894;2023-02-24T11:22:31;23.05;;;15.05;;
25988;SDS011;13778;48.236;9.894;2023-02-24T11:25:23;25.20;;;16.98;;
25988;SDS011;13778;48.236;9.894;2023-02-24T11:28:15;21.63;;;14.07;;
25988;SDS011;13778;48.236;9.894;2023-02-24T11:31:12;22.02;;;14.85;;
25988;SDS011;13778;48.236;9.894;2023-02-24T11:34:08;25.30;;;15.43;;
25988;SDS011;13778;48.236;9.894;2023-02-24T11:37:01;19.80;;;14.00;;
25988;SDS011;13778;48.236;9.894;2023-02-24T11:39:58;24.70;;;15.88;;
25988;SDS011;13778;48.236;9.894;2023-02-24T11:42:49;20.98;;;15.40;;
25988;SDS011;13778;48.236;9.894;2023-02-24T11:45:42;21.00;;;14.18;;
25988;SDS011;13778;48.236;9.894;2023-02-24T11:48:35;26.55;;;14.82;;
25988;SDS011;13778;48.236;9.894;2023-02-24T11:51:28;21.25;;;14.82;;
25988;SDS011;13778;48.236;9.894;2023-02-24T11:54:21;25.25;;;15.38;;
25988;SDS011;13778;48.236;9.894;2023-02-24T11:57:12;20.10;;;12.47;;
25988;SDS011;13778;48.236;9.894;2023-02-24T12:00:06;20.00;;;15.10;;
25988;SDS011;13778;48.236;9.894;2023-02-24T12:03:03;21.67;;;13.98;;
25988;SDS011;13778;48.236;9.894;2023-02-24T12:05:56;21.27;;;12.27;;
25988;SDS011;13778;48.236;9.894;2023-02-24T12:08:52;23.20;;;13.70;;
25988;SDS011;13778;48.236;9.894;2023-02-24T12:11:46;25.48;;;13.07;;
25988;SDS011;13778;48.236;9.894;2023-02-24T12:14:39;23.55;;;14.27;;
25988;SDS011;13778;48.236;9.894;2023-02-24T12:17:30;26.30;;;14.02;;
25988;SDS011;13778;48.236;9.894;2023-02-24T12:20:25;22.85;;;13.48;;
25988;SDS011;13778;48.236;9.894;2023-02-24T12:23:18;22.85;;;13.90;;
25988;SDS011;13778;48.236;9.894;2023-02-24T12:26:15;26.67;;;14.88;;
25988;SDS011;13778;48.236;9.894;2023-02-24T12:29:29;22.65;;;12.65;;
25988;SDS011;13778;48.236;9.894;2023-02-24T12:32:26;22.75;;;14.57;;
25988;SDS011;13778;48.236;9.894;2023-02-24T12:35:20;18.02;;;11.85;;
25988;SDS011;13778;48.236;9.894;2023-02-24T12:38:20;25.52;;;11.82;;
25988;SDS011;13778;48.236;9.894;2023-02-24T12:41:22;23.67;;;11.57;;
25988;SDS011;13778;48.236;9.894;2023-02-24T12:44:17;32.23;;;12.03;;
25988;SDS011;13778;48.236;9.894;2023-02-24T12:47:12;25.83;;;10.57;;
25988;SDS011;13778;48.236;9.894;2023-02-24T12:53:15;20.17;;;9.55;;
25988;SDS011;13778;48.236;9.894;2023-02-24T12:56:08;26.83;;;10.75;;
25988;SDS011;13778;48.236;9.894;2023-02-24T12:59:03;27.23;;;12.18;;
25988;SDS011;13778;48.236;9.894;2023-02-24T13:01:57;19.42;;;10.27;;
25988;SDS011;13778;48.236;9.894;2023-02-24T13:04:49;18.13;;;10.70;;
25988;SDS011;13778;48.236;9.894;2023-02-24T13:07:59;16.73;;;10.57;;
25988;SDS011;13778;48.236;9.894;2023-02-24T13:10:58;19.60;;;9.80;;
25988;SDS011;13778;48.236;9.894;2023-02-24T13:13:52;24.48;;;10.05;;
25988;SDS011;13778;48.236;9.894;2023-02-24T13:16:47;22.67;;;10.63;;
25988;SDS011;13778;48.236;9.894;2023-02-24T13:19:37;19.13;;;9.80;;
25988;SDS011;13778;48.236;9.894;2023-02-24T13:25:20;16.40;;;9.18;;
25988;SDS011;13778;48.236;9.894;2023-02-24T13:28:19;18.05;;;8.77;;
25988;SDS011;13778;48.236;9.894;2023-02-24T13:31:11;17.35;;;8.27;;
25988;SDS011;13778;48.236;9.894;2023-02-24T13:34:12;20.30;;;8.98;;
25988;SDS011;13778;48.236;9.894;2023-02-24T13:37:02;27.50;;;10.27;;
25988;SDS011;13778;48.236;9.894;2023-02-24T13:39:52;24.75;;;10.60;;
25988;SDS011;13778;48.236;9.894;2023-02-24T13:42:54;26.80;;;8.00;;
25988;SDS011;13778;48.236;9.894;2023-02-24T13:45:52;21.58;;;8.65;;
25988;SDS011;13778;48.236;9.894;2023-02-24T13:48:55;25.88;;;10.82;;
25988;SDS011;13778;48.236;9.894;2023-02-24T13:51:56;20.75;;;7.68;;
25988;SDS011;13778;48.236;9.894;2023-02-24T13:54:54;30.02;;;8.90;;
25988;SDS011;13778;48.236;9.894;2023-02-24T13:57:52;20.58;;;7.13;;
25988;SDS011;13778;48.236;9.894;2023-02-24T14:00:50;18.38;;;7.90;;
25988;SDS011;13778;48.236;9.894;2023-02-24T14:03:44;19.35;;;7.50;;
25988;SDS011;13778;48.236;9.894;2023-02-24T14:06:36;23.67;;;7.78;;
25988;SDS011;13778;48.236;9.894;2023-02-24T14:09:29;14.80;;;7.40;;
25988;SDS011;13778;48.236;9.894;2023-02-24T14:12:20;16.35;;;7.13;;
25988;SDS011;13778;48.236;9.894;2023-02-24T14:15:14;18.30;;;7.07;;
25988;SDS011;13778;48.236;9.894;2023-02-24T14:18:04;18.58;;;7.35;;
25988;SDS011;13778;48.236;9.894;2023-02-24T14:20:56;17.58;;;8.05;;
25988;SDS011;13778;48.236;9.894;2023-02-24T14:23:53;21.40;;;7.60;;
25988;SDS011;13778;48.236;9.894;2023-02-24T14:26:46;23.10;;;8.85;;
25988;SDS011;13778;48.236;9.894;2023-02-24T14:29:36;23.05;;;8.02;;
25988;SDS011;13778;48.236;9.894;2023-02-24T14:32:28;24.80;;;10.30;;
25988;SDS011;13778;48.236;9.894;2023-02-24T14:35:20;29.17;;;9.47;;
25988;SDS011;13778;48.236;9.894;2023-02-24T14:38:26;30.00;;;8.35;;
25988;SDS011;13778;48.236;9.894;2023-02-24T14:41:18;19.05;;;8.70;;
25988;SDS011;13778;48.236;9.894;2023-02-24T14:44:18;19.67;;;8.02;;
25988;SDS011;13778;48.236;9.894;2023-02-24T14:47:10;23.65;;;8.82;;
25988;SDS011;13778;48.236;9.894;2023-02-24T14:50:03;21.90;;;8.73;;
25988;SDS011;13778;48.236;9.894;2023-02-24T14:52:55;24.42;;;8.82;;
25988;SDS011;13778;48.236;9.894;2023-02-24T14:55:45;22.00;;;7.93;;
25988;SDS011;13778;48.236;9.894;2023-02-24T14:58:39;23.67;;;8.90;;
25988;SDS011;13778;48.236;9.894;2023-02-24T15:01:33;20.80;;;8.88;;
25988;SDS011;13778;48.236;9.894;2023-02-24T15:04:29;20.17;;;9.00;;
25988;SDS011;13778;48.236;9.894;2023-02-24T15:07:22;21.98;;;8.45;;
25988;SDS011;13778;48.236;9.894;2023-02-24T15:10:16;18.27;;;8.95;;
25988;SDS011;13778;48.236;9.894;2023-02-24T15:13:09;20.45;;;9.85;;
25988;SDS011;13778;48.236;9.894;2023-02-24T15:16:03;20.58;;;9.52;;
25988;SDS011;13778;48.236;9.894;2023-02-24T15:18:56;21.02;;;9.05;;
25988;SDS011;13778;48.236;9.894;2023-02-24T15:21:47;22.65;;;8.95;;
25988;SDS011;13778;48.236;9.894;2023-02-24T15:24:37;20.80;;;9.68;;
25988;SDS011;13778;48.236;9.894;2023-02-24T15:27:29;22.70;;;10.52;;
25988;SDS011;13778;48.236;9.894;2023-02-24T15:30:28;25.60;;;10.63;;
25988;SDS011;13778;48.236;9.894;2023-02-24T15:33:19;24.70;;;10.05;;
25988;SDS011;13778;48.236;9.894;2023-02-24T15:36:14;32.70;;;10.07;;
25988;SDS011;13778;48.236;9.894;2023-02-24T15:39:07;21.38;;;10.27;;
25988;SDS011;13778;48.236;9.894;2023-02-24T15:42:05;22.67;;;10.45;;
25988;SDS011;13778;48.236;9.894;2023-02-24T15:44:56;19.45;;;9.32;;
25988;SDS011;13778;48.236;9.894;2023-02-24T15:47:49;22.67;;;9.60;;
25988;SDS011;13778;48.236;9.894;2023-02-24T15:50:41;16.23;;;9.02;;
25988;SDS011;13778;48.236;9.894;2023-02-24T15:53:33;27.58;;;13.35;;
25988;SDS011;13778;48.236;9.894;2023-02-24T15:56:23;28.13;;;12.73;;
25988;SDS011;13778;48.236;9.894;2023-02-24T15:59:14;26.20;;;11.43;;
25988;SDS011;13778;48.236;9.894;2023-02-24T16:02:09;19.77;;;9.98;;
25988;SDS011;13778;48.236;9.894;2023-02-24T16:05:00;23.63;;;9.45;;
25988;SDS011;13778;48.236;9.894;2023-02-24T16:07:50;27.67;;;10.27;;
25988;SDS011;13778;48.236;9.894;2023-02-24T16:10:42;27.33;;;12.93;;
25988;SDS011;13778;48.236;9.894;2023-02-24T16:13:33;23.63;;;12.57;;
25988;SDS011;13778;48.236;9.894;2023-02-24T16:16:23;47.08;;;20.65;;
25988;SDS011;13778;48.236;9.894;2023-02-24T16:19:14;26.98;;;12.02;;
25988;SDS011;13778;48.236;9.894;2023-02-24T16:22:05;24.02;;;13.30;;
25988;SDS011;13778;48.236;9.894;2023-02-24T16:24:55;27.48;;;12.23;;
25988;SDS011;13778;48.236;9.894;2023-02-24T16:27:47;19.35;;;10.32;;
25988;SDS011;13778;48.236;9.894;2023-02-24T16:33:28;20.05;;;9.32;;
25988;SDS011;13778;48.236;9.894;2023-02-24T16:36:18;20.13;;;11.05;;
25988;SDS011;13778;48.236;9.894;2023-02-24T16:39:09;17.23;;;10.07;;
25988;SDS011;13778;48.236;9.894;2023-02-24T16:41:59;21.15;;;10.80;;
25988;SDS011;13778;48.236;9.894;2023-02-24T16:44:55;28.10;;;9.80;;
25988;SDS011;13778;48.236;9.894;2023-02-24T16:50:37;20.92;;;10.65;;
25988;SDS011;13778;48.236;9.894;2023-02-24T16:53:28;18.40;;;9.95;;
25988;SDS011;13778;48.236;9.894;2023-02-24T16:56:18;27.80;;;12.18;;
25988;SDS011;13778;48.236;9.894;2023-02-24T16:59:08;26.55;;;12.05;;
25988;SDS011;13778;48.236;9.894;2023-02-24T17:02:00;29.77;;;12.88;;
25988;SDS011;13778;48.236;9.894;2023-02-24T17:04:51;24.02;;;11.05;;
25988;SDS011;13778;48.236;9.894;2023-02-24T17:07:41;24.63;;;11.88;;
25988;SDS011;13778;48.236;9.894;2023-02-24T17:10:32;23.08;;;12.05;;
25988;SDS011;13778;48.236;9.894;2023-02-24T17:13:26;21.48;;;11.15;;
25988;SDS011;13778;48.236;9.894;2023-02-24T17:16:16;23.17;;;10.25;;
25988;SDS011;13778;48.236;9.894;2023-02-24T17:19:08;24.70;;;11.30;;
25988;SDS011;13778;48.236;9.894;2023-02-24T17:21:58;25.75;;;10.02;;
25988;SDS011;13778;48.236;9.894;2023-02-24T17:24:49;20.23;;;9.57;;
25988;SDS011;13778;48.236;9.894;2023-02-24T17:27:39;23.45;;;9.50;;
25988;SDS011;13778;48.236;9.894;2023-02-24T17:30:30;25.08;;;10.18;;
25988;SDS011;13778;48.236;9.894;2023-02-24T17:33:21;35.70;;;18.13;;
25988;SDS011;13778;48.236;9.894;2023-02-24T17:36:13;31.98;;;14.85;;
25988;SDS011;13778;48.236;9.894;2023-02-24T17:41:53;23.63;;;13.00;;